Time;durP1;ratioP1;P1;durP2;ratioP2;P2;SDS_P1;SDS_P2;PMS_P1;PMS_P2;Temp;Humidity;BMP_temperature;BMP_pressure;BME280_temperature;BME280_humidity;BME280_pressure;Samples;Min_cycle;Max_cycle;Signal;HPM_P1;HPM_P2
2021/04/26 00:01:21;;;;;;;2.90;1.90;;;10.30;48.90;;;;;;5052539;28;20033;-82
2021/04/26 00:03:47;;;;;;;2.00;1.80;;;10.30;48.90;;;;;;5052640;28;20032;-81
2021/04/26 00:06:14;;;;;;;2.40;1.60;;;10.30;49.00;;;;;;5052604;28;20227;-79
2021/04/26 00:08:39;;;;;;;1.85;1.60;;;10.20;49.00;;;;;;5051208;28;20143;-80
2021/04/26 00:11:07;;;;;;;3.70;1.80;;;10.20;49.10;;;;;;5052595;28;20464;-80
2021/04/26 00:13:33;;;;;;;2.90;1.52;;;10.30;49.10;;;;;;5034748;28;20045;-81
2021/04/26 00:15:59;;;;;;;2.70;1.85;;;10.20;49.00;;;;;;5052547;28;20041;-80
2021/04/26 00:18:25;;;;;;;1.80;1.67;;;10.20;49.00;;;;;;5052560;28;20055;-81
2021/04/26 00:20:51;;;;;;;1.85;1.70;;;10.20;49.20;;;;;;5052235;28;20040;-81
2021/04/26 00:23:17;;;;;;;1.75;1.65;;;10.20;49.10;;;;;;5052457;28;20048;-82
2021/04/26 00:25:43;;;;;;;2.15;1.92;;;10.20;49.20;;;;;;5051981;28;20033;-81
2021/04/26 00:28:10;;;;;;;2.95;1.33;;;10.20;49.10;;;;;;5052678;28;20037;-81
2021/04/26 00:30:36;;;;;;;2.70;1.70;;;10.20;49.30;;;;;;5052177;28;20080;-81
2021/04/26 00:33:03;;;;;;;3.47;2.05;;;10.10;49.30;;;;;;5052459;28;20037;-81
2021/04/26 00:35:29;;;;;;;2.05;1.83;;;10.10;49.30;;;;;;5051640;28;20048;-80
2021/04/26 00:37:55;;;;;;;2.22;1.63;;;10.10;49.20;;;;;;5051396;28;20037;-80
2021/04/26 00:40:23;;;;;;;2.35;1.95;;;10.20;49.30;;;;;;5050826;28;20063;-80
2021/04/26 00:42:50;;;;;;;2.10;1.80;;;10.10;49.30;;;;;;5050860;28;20036;-80
2021/04/26 00:45:20;;;;;;;3.10;1.85;;;10.10;49.30;;;;;;5051735;28;20064;-81
2021/04/26 00:47:47;;;;;;;1.98;1.77;;;10.10;49.90;;;;;;5051480;28;20118;-80
2021/04/26 00:50:18;;;;;;;2.35;1.50;;;10.10;49.30;;;;;;5054613;28;20064;-79
2021/04/26 00:52:45;;;;;;;2.70;1.88;;;10.10;49.40;;;;;;5055817;28;20045;-80
2021/04/26 00:55:13;;;;;;;2.15;1.65;;;10.10;49.40;;;;;;5054505;28;20029;-79
2021/04/26 00:57:39;;;;;;;2.15;1.73;;;10.10;49.40;;;;;;5054930;28;20033;-81
2021/04/26 01:00:07;;;;;;;2.65;1.58;;;10.00;49.50;;;;;;5056075;28;20048;-80
2021/04/26 01:02:35;;;;;;;2.33;1.52;;;10.00;49.50;;;;;;5054879;28;20025;-80
2021/04/26 01:05:08;;;;;;;2.53;1.88;;;10.00;49.50;;;;;;5054660;28;20099;-80
2021/04/26 01:07:36;;;;;;;1.48;1.38;;;10.00;49.50;;;;;;5038402;28;20056;-79
2021/04/26 01:10:06;;;;;;;2.42;1.88;;;10.00;49.60;;;;;;5055593;28;20072;-80
2021/04/26 01:13:02;;;;;;;2.50;1.83;;;10.00;49.70;;;;;;5037904;28;20077;-81
2021/04/26 01:15:33;;;;;;;3.10;1.88;;;10.00;49.60;;;;;;5054578;28;20079;-80
2021/04/26 01:18:05;;;;;;;2.35;1.85;;;10.00;49.60;;;;;;5054530;28;20064;-80
2021/04/26 01:20:56;;;;;;;2.15;1.52;;;9.90;49.60;;;;;;5054464;28;20090;-80
2021/04/26 01:24:00;;;;;;;2.28;1.67;;;9.90;49.60;;;;;;5055495;28;20051;-79
2021/04/26 01:26:38;;;;;;;3.55;1.98;;;9.90;49.80;;;;;;5055506;28;20068;-81
2021/04/26 01:29:42;;;;;;;3.00;2.25;;;9.90;49.70;;;;;;5054136;28;20140;-79
2021/04/26 01:32:29;;;;;;;2.42;1.80;;;9.90;49.70;;;;;;5032947;28;20049;-80
2021/04/26 01:34:59;;;;;;;2.40;1.95;;;9.90;49.80;;;;;;5036795;28;20044;-80
2021/04/26 01:37:34;;;;;;;1.80;1.63;;;9.90;49.90;;;;;;5054084;28;20043;-80
2021/04/26 01:40:05;;;;;;;2.95;2.10;;;9.80;49.90;;;;;;5053959;28;20060;-80
2021/04/26 01:42:33;;;;;;;2.40;1.92;;;9.80;50.00;;;;;;5054076;28;20033;-80
2021/04/26 01:45:02;;;;;;;1.95;1.75;;;9.80;50.00;;;;;;5037297;28;20099;-80
2021/04/26 01:47:29;;;;;;;3.58;2.20;;;9.80;50.00;;;;;;5054156;28;20437;-80
2021/04/26 01:49:58;;;;;;;2.30;1.90;;;9.80;50.00;;;;;;5053717;28;20497;-79
2021/04/26 01:52:27;;;;;;;2.55;2.03;;;9.80;50.00;;;;;;5053570;28;20041;-78
2021/04/26 01:54:55;;;;;;;2.65;1.92;;;9.80;50.00;;;;;;5054307;28;20056;-80
2021/04/26 01:57:23;;;;;;;2.42;1.95;;;9.80;50.00;;;;;;5036751;28;20045;-81
2021/04/26 01:59:53;;;;;;;2.45;2.25;;;9.80;50.00;;;;;;5052700;28;20048;-80
2021/04/26 02:02:24;;;;;;;4.18;2.72;;;9.70;50.00;;;;;;5037253;28;20127;-81
2021/04/26 02:04:52;;;;;;;4.68;2.33;;;9.70;50.00;;;;;;5053720;28;20041;-80
2021/04/26 02:07:47;;;;;;;;;;;9.70;50.00;;;;;;5044333;28;20041;-81
2021/04/26 02:10:20;;;;;;;4.45;2.80;;;9.70;50.10;;;;;;5053094;28;19917;-82
2021/04/26 02:12:47;;;;;;;3.17;2.05;;;9.70;50.10;;;;;;5053323;28;20385;-79
2021/04/26 02:15:18;;;;;;;3.78;2.45;;;9.70;50.20;;;;;;5054605;28;20048;-80
2021/04/26 02:17:45;;;;;;;3.70;2.63;;;9.70;50.20;;;;;;5036502;28;20494;-79
2021/04/26 02:20:13;;;;;;;4.28;3.00;;;9.70;50.20;;;;;;5053795;28;20457;-80
2021/04/26 02:22:40;;;;;;;4.18;2.58;;;9.70;50.10;;;;;;5019997;28;20072;-81
2021/04/26 02:25:09;;;;;;;3.78;2.85;;;9.70;50.20;;;;;;5054063;28;20131;-81
2021/04/26 02:27:35;;;;;;;2.65;2.33;;;9.70;50.20;;;;;;5036235;28;20091;-80
2021/04/26 02:30:05;;;;;;;3.42;2.60;;;9.70;50.30;;;;;;5036267;28;20036;-79
2021/04/26 02:32:40;;;;;;;3.92;2.90;;;9.70;50.30;;;;;;5036318;28;20120;-79
2021/04/26 02:35:42;;;;;;;3.72;2.45;;;9.70;50.30;;;;;;5039754;28;20036;-79
2021/04/26 02:38:24;;;;;;;3.77;2.90;;;9.70;50.40;;;;;;5053192;28;20036;-79
2021/04/26 02:40:55;;;;;;;4.57;2.90;;;9.70;50.40;;;;;;5036287;28;20065;-79
2021/04/26 02:43:23;;;;;;;3.60;2.70;;;9.70;50.40;;;;;;5019890;28;20037;-79
2021/04/26 02:45:53;;;;;;;2.60;2.35;;;9.60;50.30;;;;;;5052377;28;20052;-80
2021/04/26 02:48:23;;;;;;;4.35;2.92;;;9.60;50.40;;;;;;5052655;28;20405;-80
2021/04/26 02:50:57;;;;;;;3.03;2.45;;;9.70;50.40;;;;;;5052752;28;20049;-79
2021/04/26 02:53:29;;;;;;;3.55;2.80;;;9.70;50.40;;;;;;5052294;28;20037;-82
2021/04/26 02:56:10;;;;;;;2.92;2.63;;;9.70;50.50;;;;;;5052169;28;20037;-82
2021/04/26 02:58:40;;;;;;;4.70;3.17;;;9.70;50.50;;;;;;5052151;28;20547;-80
2021/04/26 03:01:23;;;;;;;4.63;2.80;;;9.70;50.40;;;;;;5052665;28;20033;-81
2021/04/26 03:04:29;;;;;;;3.95;3.35;;;9.70;50.40;;;;;;4992679;28;20038;-80
2021/04/26 03:07:00;;;;;;;4.35;3.72;;;9.70;50.40;;;;;;5042223;28;20061;-80
2021/04/26 03:09:34;;;;;;;4.28;3.58;;;9.70;50.40;;;;;;5054402;28;20092;-82
2021/04/26 03:12:00;;;;;;;4.72;3.20;;;9.80;50.40;;;;;;5054255;28;20708;-82
2021/04/26 03:14:48;;;;;;;4.55;2.83;;;9.70;50.50;;;;;;5056699;28;20045;-81
2021/04/26 03:17:15;;;;;;;3.75;3.15;;;9.80;50.40;;;;;;5052791;28;20040;-80
2021/04/26 03:19:47;;;;;;;4.60;3.15;;;9.80;50.40;;;;;;5052230;28;20393;-79
2021/04/26 03:22:15;;;;;;;8.82;3.20;;;9.80;50.30;;;;;;5051802;28;20065;-80
2021/04/26 03:24:44;;;;;;;4.72;2.88;;;9.80;50.30;;;;;;5051765;28;20036;-80
2021/04/26 03:27:11;;;;;;;3.47;2.70;;;9.80;50.30;;;;;;5051627;28;20052;-78
2021/04/26 03:29:40;;;;;;;4.93;2.97;;;9.80;50.30;;;;;;5052077;28;20456;-84
2021/04/26 03:32:08;;;;;;;4.65;3.30;;;9.80;50.40;;;;;;5051370;28;20148;-83
2021/04/26 03:34:41;;;;;;;5.82;3.67;;;9.80;50.40;;;;;;5052000;28;20029;-83
2021/04/26 03:37:15;;;;;;;5.85;3.60;;;9.80;50.40;;;;;;5053019;28;20037;-84
2021/04/26 03:39:43;;;;;;;3.65;3.30;;;9.80;50.50;;;;;;5051790;28;20041;-82
2021/04/26 03:42:12;;;;;;;3.47;2.92;;;9.80;50.40;;;;;;5062873;28;20037;-88
2021/04/26 03:44:39;;;;;;;3.70;2.83;;;9.90;50.50;;;;;;5030483;28;20580;-91
2021/04/26 03:47:34;;;;;;;5.13;3.10;;;9.90;50.50;;;;;;4971153;28;20046;-82
2021/04/26 03:50:20;;;;;;;4.00;3.13;;;9.90;50.40;;;;;;5054037;28;20040;-84
2021/04/26 03:53:04;;;;;;;3.70;3.13;;;9.90;50.40;;;;;;5062346;28;20066;-90
2021/04/26 03:55:50;;;;;;;5.72;3.55;;;9.90;50.30;;;;;;5043588;28;20052;-89
2021/04/26 03:58:17;;;;;;;5.03;3.00;;;9.90;50.30;;;;;;5058743;28;20044;-87
2021/04/26 04:00:43;;;;;;;4.07;3.40;;;10.00;50.40;;;;;;5056487;28;20128;-88
2021/04/26 04:03:13;;;;;;;3.58;2.97;;;9.90;50.20;;;;;;5057355;28;20508;-87
2021/04/26 04:05:45;;;;;;;4.57;2.97;;;10.00;50.30;;;;;;5052527;28;20043;-83
2021/04/26 04:08:34;;;;;;;5.85;3.35;;;10.10;50.90;;;;;;5034910;28;20044;-80
2021/04/26 04:11:18;;;;;;;4.78;3.20;;;10.10;50.30;;;;;;5031181;28;20609;-78
2021/04/26 04:13:47;;;;;;;4.95;3.35;;;10.20;50.10;;;;;;5046800;28;20049;-80
2021/04/26 04:16:13;;;;;;;5.03;3.58;;;10.30;50.00;;;;;;5048006;28;20371;-79
2021/04/26 04:18:39;;;;;;;7.53;3.70;;;10.90;49.60;;;;;;5047985;28;20053;-79
2021/04/26 04:21:07;;;;;;;4.30;3.53;;;11.60;49.00;;;;;;5032417;28;20037;-79
2021/04/26 04:23:35;;;;;;;3.70;2.95;;;12.40;48.10;;;;;;5049011;28;20033;-79
2021/04/26 04:26:02;;;;;;;3.45;3.15;;;13.20;47.20;;;;;;5035021;28;20140;-87
2021/04/26 04:28:31;;;;;;;4.30;3.05;;;14.00;46.20;;;;;;5051734;28;20437;-83
2021/04/26 04:31:00;;;;;;;4.97;3.65;;;14.60;45.10;;;;;;5051675;28;20040;-85
2021/04/26 04:33:58;;;;;;;4.55;3.33;;;15.00;44.40;;;;;;5024547;28;20037;-84
2021/04/26 04:36:43;;;;;;;5.85;3.58;;;15.40;43.80;;;;;;5035906;28;20103;-87
2021/04/26 04:39:36;;;;;;;4.97;3.40;;;15.80;43.40;;;;;;4974658;28;20046;-86
2021/04/26 04:42:22;;;;;;;5.78;3.45;;;16.20;42.90;;;;;;5024872;28;20052;-85
2021/04/26 04:44:49;;;;;;;4.25;2.83;;;16.60;43.10;;;;;;5034429;28;20057;-87
2021/04/26 04:47:15;;;;;;;4.20;3.10;;;17.10;42.60;;;;;;5018226;28;20040;-87
2021/04/26 04:49:41;;;;;;;3.90;3.20;;;17.70;41.10;;;;;;5051433;28;20041;-85
2021/04/26 04:52:07;;;;;;;5.07;3.45;;;18.30;40.40;;;;;;5034678;28;20041;-86
2021/04/26 04:54:35;;;;;;;3.97;3.17;;;18.90;39.40;;;;;;5051591;28;20029;-87
2021/04/26 04:57:05;;;;;;;4.50;2.58;;;19.50;38.80;;;;;;5051458;28;20466;-88
2021/04/26 04:59:38;;;;;;;5.28;2.60;;;20.00;38.10;;;;;;5036005;28;20030;-85
2021/04/26 05:02:27;;;;;;;3.95;2.58;;;20.40;37.30;;;;;;5037694;28;20370;-86
2021/04/26 05:05:24;;;;;;;4.40;2.47;;;20.90;36.80;;;;;;4965173;28;20047;-87
2021/04/26 05:08:08;;;;;;;;;;;21.40;36.90;;;;;;5036427;28;20090;-88
2021/04/26 05:10:52;;;;;;;2.78;2.30;;;21.70;35.30;;;;;;5036130;28;19924;-87
2021/04/26 05:13:37;;;;;;;3.75;2.30;;;22.10;35.50;;;;;;5036459;28;20056;-88
2021/04/26 05:16:05;;;;;;;3.05;2.20;;;22.40;35.20;;;;;;5051956;28;20045;-89
2021/04/26 05:18:32;;;;;;;3.65;2.10;;;22.60;34.90;;;;;;5037028;28;20033;-88
2021/04/26 05:20:58;;;;;;;2.60;2.40;;;22.70;34.70;;;;;;5033969;28;20042;-83
2021/04/26 05:23:24;;;;;;;4.00;2.35;;;22.80;34.70;;;;;;5035255;28;20037;-84
2021/04/26 05:25:51;;;;;;;2.05;1.90;;;22.90;34.70;;;;;;5050708;28;20041;-87
2021/04/26 05:28:19;;;;;;;2.40;1.80;;;23.00;34.50;;;;;;5036608;28;20517;-88
2021/04/26 05:30:50;;;;;;;1.73;1.63;;;23.20;34.30;;;;;;5052342;28;20040;-85
2021/04/26 05:33:17;;;;;;;2.20;1.98;;;23.40;34.30;;;;;;5050846;28;20406;-88
2021/04/26 05:35:55;;;;;;;3.63;2.05;;;23.60;34.00;;;;;;5036304;28;20379;-81
2021/04/26 05:38:27;;;;;;;2.88;2.00;;;23.70;33.80;;;;;;5033283;28;20135;-81
2021/04/26 05:40:53;;;;;;;5.07;2.30;;;23.80;33.60;;;;;;5033704;28;20183;-81
2021/04/26 05:43:20;;;;;;;3.80;2.13;;;23.90;32.10;;;;;;5050566;28;20494;-88
2021/04/26 05:45:50;;;;;;;9.75;1.92;;;23.90;31.80;;;;;;5036984;28;20048;-84
2021/04/26 05:48:18;;;;;;;4.30;1.90;;;23.90;31.50;;;;;;5035150;28;20075;-80
2021/04/26 05:50:44;;;;;;;5.88;2.08;;;24.00;31.50;;;;;;5035110;28;20033;-81
2021/04/26 05:53:10;;;;;;;3.78;2.25;;;24.20;31.50;;;;;;5034946;28;20049;-79
2021/04/26 05:55:37;;;;;;;3.75;2.00;;;24.20;31.10;;;;;;5035116;28;20408;-82
2021/04/26 05:58:03;;;;;;;3.08;1.90;;;24.20;31.00;;;;;;5034999;28;20041;-81
2021/04/26 06:00:29;;;;;;;4.32;1.75;;;24.40;30.90;;;;;;5034536;28;20041;-81
2021/04/26 06:02:55;;;;;;;6.60;2.10;;;24.40;30.90;;;;;;5034527;28;20076;-80
2021/04/26 06:05:21;;;;;;;3.15;1.70;;;24.40;30.60;;;;;;5034593;28;20469;-81
2021/04/26 06:07:47;;;;;;;2.88;1.77;;;24.40;30.50;;;;;;5050692;28;20037;-80
2021/04/26 06:10:13;;;;;;;2.65;1.70;;;24.50;30.50;;;;;;5037584;28;20041;-87
2021/04/26 06:12:39;;;;;;;3.10;1.70;;;24.50;30.50;;;;;;5039417;28;20088;-87
2021/04/26 06:15:06;;;;;;;2.92;1.65;;;24.60;30.50;;;;;;5040395;28;20033;-83
2021/04/26 06:17:32;;;;;;;9.20;2.05;;;24.60;30.30;;;;;;5037980;28;20041;-80
2021/04/26 06:19:58;;;;;;;4.78;3.25;;;24.60;30.50;;;;;;5034694;28;20093;-78
2021/04/26 06:22:24;;;;;;;5.72;4.18;;;24.60;30.50;;;;;;5037373;28;20064;-81
2021/04/26 06:24:50;;;;;;;5.20;2.88;;;24.60;30.30;;;;;;5036945;28;20050;-81
2021/04/26 06:27:16;;;;;;;2.65;2.08;;;24.70;30.50;;;;;;5036782;28;20521;-80
2021/04/26 06:29:42;;;;;;;3.42;2.15;;;24.80;30.30;;;;;;5036791;28;20124;-84
2021/04/26 06:32:08;;;;;;;3.10;1.92;;;24.90;30.00;;;;;;5037661;28;20071;-82
2021/04/26 06:34:34;;;;;;;2.90;1.65;;;24.90;30.00;;;;;;5035984;28;20474;-83
2021/04/26 06:37:00;;;;;;;2.78;1.75;;;24.80;30.00;;;;;;5036718;28;20032;-80
2021/04/26 06:39:26;;;;;;;7.28;1.95;;;24.80;29.90;;;;;;5035118;28;20140;-79
2021/04/26 06:41:52;;;;;;;4.75;1.20;;;24.80;30.00;;;;;;5036108;28;20563;-79
2021/04/26 06:44:18;;;;;;;3.08;1.90;;;24.70;30.00;;;;;;5036122;28;20029;-82
2021/04/26 06:46:46;;;;;;;1.73;1.60;;;24.80;30.00;;;;;;5035447;28;20478;-80
2021/04/26 06:49:12;;;;;;;1.20;1.10;;;24.70;29.90;;;;;;5034891;28;20049;-81
2021/04/26 06:51:38;;;;;;;1.95;1.60;;;24.50;29.70;;;;;;5051381;28;20405;-80
2021/04/26 06:54:04;;;;;;;2.47;1.40;;;24.30;29.50;;;;;;5035930;28;20041;-81
2021/04/26 06:56:31;;;;;;;1.30;1.20;;;24.20;29.70;;;;;;5034711;28;20076;-81
2021/04/26 06:58:57;;;;;;;1.65;1.27;;;23.90;29.70;;;;;;5035527;28;20030;-81
2021/04/26 07:01:23;;;;;;;1.20;1.10;;;23.80;30.00;;;;;;5051150;28;20029;-80
2021/04/26 07:03:49;;;;;;;3.08;1.30;;;23.60;30.10;;;;;;5051975;28;20132;-79
2021/04/26 07:06:16;;;;;;;2.22;1.30;;;23.60;30.20;;;;;;5035637;28;20579;-80
2021/04/26 07:08:43;;;;;;;4.60;1.58;;;23.60;30.10;;;;;;5051773;28;20036;-81
2021/04/26 07:11:09;;;;;;;1.80;1.25;;;23.70;30.10;;;;;;5049323;28;20041;-81
2021/04/26 07:13:35;;;;;;;2.13;1.30;;;23.70;30.00;;;;;;5053827;28;20039;-83
2021/04/26 07:16:01;;;;;;;2.75;1.40;;;23.60;30.20;;;;;;5054021;28;20098;-81
2021/04/26 07:18:27;;;;;;;1.52;1.40;;;23.50;30.30;;;;;;5055333;28;20036;-79
2021/04/26 07:20:53;;;;;;;2.22;1.23;;;23.30;30.20;;;;;;5053956;28;20075;-79
2021/04/26 07:23:19;;;;;;;1.65;1.25;;;23.20;30.30;;;;;;5054867;28;20119;-82
2021/04/26 07:25:45;;;;;;;1.77;1.25;;;23.20;30.70;;;;;;5037168;28;20076;-77
2021/04/26 07:28:12;;;;;;;5.78;1.40;;;23.30;30.60;;;;;;5054493;28;20076;-76
2021/04/26 07:30:38;;;;;;;3.28;0.98;;;23.40;31.80;;;;;;5054495;28;20037;-76
2021/04/26 07:33:04;;;;;;;3.58;1.20;;;23.50;32.50;;;;;;5054144;28;20033;-76
2021/04/26 07:35:30;;;;;;;3.40;1.15;;;23.60;32.90;;;;;;5054527;28;20083;-75
2021/04/26 07:37:56;;;;;;;3.15;1.23;;;23.70;32.90;;;;;;5054686;28;20507;-75
2021/04/26 07:40:22;;;;;;;4.25;1.13;;;23.70;32.90;;;;;;5054441;28;20044;-80
2021/04/26 07:42:48;;;;;;;2.78;1.00;;;23.60;32.90;;;;;;5055055;28;20111;-80
2021/04/26 07:45:19;;;;;;;4.30;1.50;;;23.50;32.30;;;;;;5054178;28;20420;-79
2021/04/26 07:47:50;;;;;;;3.97;3.10;;;23.20;31.50;;;;;;5055676;28;20489;-79
2021/04/26 07:50:17;;;;;;;3.80;2.25;;;23.00;30.80;;;;;;5054874;28;20137;-80
2021/04/26 07:52:43;;;;;;;3.08;1.48;;;22.80;30.50;;;;;;5055438;28;20500;-79
2021/04/26 07:55:10;;;;;;;2.70;1.58;;;22.60;30.70;;;;;;5053865;28;20047;-81
2021/04/26 07:57:38;;;;;;;2.75;1.52;;;22.50;30.70;;;;;;5054756;28;20405;-79
2021/04/26 08:00:06;;;;;;;2.70;1.52;;;22.30;30.70;;;;;;5053918;28;20064;-81
2021/04/26 08:02:32;;;;;;;3.47;1.23;;;22.20;30.70;;;;;;5054447;28;20075;-79
2021/04/26 08:04:58;;;;;;;1.48;1.02;;;22.10;30.90;;;;;;5055095;28;20513;-84
2021/04/26 08:07:24;;;;;;;1.73;1.17;;;22.00;30.70;;;;;;5055268;28;20044;-80
2021/04/26 08:09:50;;;;;;;2.53;1.05;;;21.90;31.30;;;;;;5054939;28;20045;-79
2021/04/26 08:12:16;;;;;;;3.45;1.10;;;21.80;30.80;;;;;;5054252;28;20048;-81
2021/04/26 08:14:42;;;;;;;2.80;1.00;;;21.60;30.90;;;;;;5054575;28;20044;-79
2021/04/26 08:17:08;;;;;;;4.47;0.90;;;21.60;30.80;;;;;;5054097;28;20047;-78
2021/04/26 08:19:34;;;;;;;2.40;1.30;;;21.50;30.70;;;;;;5054604;28;20032;-81
2021/04/26 08:22:00;;;;;;;3.33;1.15;;;21.40;30.80;;;;;;5055276;28;20091;-79
2021/04/26 08:24:28;;;;;;;2.33;1.20;;;21.30;30.80;;;;;;5054865;28;20047;-77
2021/04/26 08:26:55;;;;;;;3.05;1.20;;;21.20;30.80;;;;;;5054697;28;20083;-79
2021/04/26 08:29:21;;;;;;;3.08;1.35;;;21.10;30.80;;;;;;5039507;28;20075;-79
2021/04/26 08:31:48;;;;;;;4.07;1.30;;;21.00;30.90;;;;;;5054857;28;20037;-78
2021/04/26 08:34:14;;;;;;;5.07;1.35;;;20.90;31.00;;;;;;5053492;28;20436;-78
2021/04/26 08:36:40;;;;;;;1.40;0.98;;;20.80;31.10;;;;;;5054969;28;20497;-78
2021/04/26 08:39:06;;;;;;;1.67;0.95;;;20.70;31.10;;;;;;5054716;28;20048;-78
2021/04/26 08:41:32;;;;;;;3.05;1.10;;;20.70;31.10;;;;;;5054771;28;20045;-81
2021/04/26 08:43:58;;;;;;;2.83;1.13;;;20.70;31.30;;;;;;5054428;28;20063;-80
2021/04/26 08:46:25;;;;;;;1.88;1.30;;;20.70;31.30;;;;;;5053194;28;20040;-78
2021/04/26 08:48:51;;;;;;;2.55;1.38;;;20.60;31.50;;;;;;5055197;28;20040;-81
2021/04/26 08:51:16;;;;;;;2.90;0.90;;;20.50;31.20;;;;;;5054966;28;20044;-83
2021/04/26 08:53:43;;;;;;;3.60;1.30;;;20.30;31.40;;;;;;5054779;28;20033;-81
2021/04/26 08:56:09;;;;;;;2.45;1.40;;;20.20;31.40;;;;;;5055038;28;20037;-82
2021/04/26 08:58:36;;;;;;;3.42;1.35;;;20.20;31.50;;;;;;5053927;28;20116;-79
2021/04/26 09:01:03;;;;;;;4.40;1.20;;;20.10;31.70;;;;;;5054119;28;20063;-78
2021/04/26 09:03:36;;;;;;;1.85;1.55;;;20.00;31.90;;;;;;5052628;28;20590;-78
2021/04/26 09:06:06;;;;;;;4.05;2.00;;;19.80;32.00;;;;;;5035306;28;20047;-80
2021/04/26 09:08:31;;;;;;;2.90;1.30;;;19.70;32.10;;;;;;5053162;28;20072;-80
2021/04/26 09:11:06;;;;;;;3.53;1.70;;;19.60;32.30;;;;;;5057645;28;20045;-79
2021/04/26 09:13:41;;;;;;;3.10;1.70;;;19.50;32.30;;;;;;5040246;28;20148;-80
2021/04/26 09:16:12;;;;;;;1.65;1.50;;;19.40;32.60;;;;;;5056836;28;20414;-80
2021/04/26 09:18:56;;;;;;;3.97;1.80;;;19.30;32.70;;;;;;5058292;28;20025;-81
2021/04/26 09:21:46;;;;;;;4.82;1.58;;;19.10;32.70;;;;;;5056696;28;20033;-80
2021/04/26 09:24:25;;;;;;;2.60;1.45;;;19.00;32.50;;;;;;5058183;28;20033;-80
2021/04/26 09:26:52;;;;;;;1.90;1.38;;;18.90;32.60;;;;;;5039856;28;20063;-83
2021/04/26 09:29:25;;;;;;;1.60;1.33;;;18.70;32.80;;;;;;5057804;28;20124;-82
2021/04/26 09:32:13;;;;;;;3.13;1.30;;;18.50;32.60;;;;;;5058160;28;20041;-80
2021/04/26 09:34:53;;;;;;;1.50;1.40;;;18.40;32.40;;;;;;5057548;28;20578;-81
2021/04/26 09:37:24;;;;;;;2.30;1.40;;;18.30;32.40;;;;;;5057461;28;20056;-81
2021/04/26 09:40:04;;;;;;;2.40;1.40;;;18.10;32.50;;;;;;5055585;28;20049;-80
2021/04/26 09:42:36;;;;;;;2.03;1.30;;;17.90;32.80;;;;;;5060302;28;20043;-82
2021/04/26 09:45:19;;;;;;;2.95;1.63;;;17.80;33.00;;;;;;5057229;28;20493;-82
2021/04/26 09:47:46;;;;;;;3.08;1.58;;;17.70;33.10;;;;;;5057558;28;20045;-81
2021/04/26 09:50:12;;;;;;;1.70;1.60;;;17.60;33.20;;;;;;5057058;28;20102;-82
2021/04/26 09:52:38;;;;;;;4.15;1.80;;;17.60;33.40;;;;;;5057077;28;20053;-81
2021/04/26 09:55:05;;;;;;;1.92;1.70;;;17.60;33.50;;;;;;5058063;28;20432;-81
2021/04/26 09:57:31;;;;;;;2.40;1.65;;;17.60;33.50;;;;;;5056976;28;20036;-82
2021/04/26 10:00:01;;;;;;;1.50;1.40;;;17.50;33.40;;;;;;5056570;28;20045;-82
2021/04/26 10:02:27;;;;;;;2.35;1.30;;;17.40;33.40;;;;;;5054706;28;20398;-81
2021/04/26 10:04:53;;;;;;;2.88;1.40;;;17.30;33.30;;;;;;5052951;28;20154;-79
2021/04/26 10:07:19;;;;;;;4.57;1.83;;;17.30;33.40;;;;;;5052753;28;20102;-80
2021/04/26 10:09:48;;;;;;;2.42;1.55;;;17.30;34.20;;;;;;5054376;28;20125;-80
2021/04/26 10:12:14;;;;;;;4.68;1.55;;;17.30;34.40;;;;;;5052786;28;20033;-79
2021/04/26 10:14:41;;;;;;;2.63;1.52;;;17.30;34.30;;;;;;5053770;28;20103;-82
2021/04/26 10:17:11;;;;;;;2.75;1.50;;;17.20;33.90;;;;;;5053228;28;20036;-82
2021/04/26 10:19:46;;;;;;;1.50;1.40;;;17.10;33.80;;;;;;5036344;28;20063;-83
2021/04/26 10:22:12;;;;;;;2.05;1.80;;;17.10;33.80;;;;;;5054794;28;20103;-81
2021/04/26 10:24:55;;;;;;;1.75;1.50;;;17.10;33.80;;;;;;5053913;28;20045;-81
2021/04/26 10:27:32;;;;;;;2.67;1.58;;;17.10;33.40;;;;;;5036006;28;20088;-80
2021/04/26 10:30:07;;;;;;;2.03;1.45;;;17.00;33.20;;;;;;5053861;28;20037;-84
2021/04/26 10:33:03;;;;;;;1.58;0.90;;;16.90;33.30;;;;;;5042438;28;20028;-85
2021/04/26 10:35:47;;;;;;;2.70;1.50;;;16.90;33.50;;;;;;5040722;28;20040;-83
2021/04/26 10:38:36;;;;;;;1.50;1.20;;;16.80;33.30;;;;;;5052643;28;20540;-84
2021/04/26 10:41:05;;;;;;;1.38;1.20;;;16.80;33.10;;;;;;5052826;28;20056;-82
2021/04/26 10:43:33;;;;;;;2.05;1.30;;;16.70;33.00;;;;;;5052088;28;20187;-80
2021/04/26 10:46:25;;;;;;;5.13;1.50;;;16.60;33.00;;;;;;5053619;28;20033;-81
2021/04/26 10:49:13;;;;;;;1.60;1.50;;;16.50;33.20;;;;;;5049512;28;20040;-78
2021/04/26 10:51:39;;;;;;;1.52;1.35;;;16.40;33.40;;;;;;5039291;28;20063;-81
2021/04/26 10:54:06;;;;;;;1.80;1.30;;;16.30;33.60;;;;;;5035569;28;20044;-81
2021/04/26 10:56:33;;;;;;;1.80;1.40;;;16.20;33.80;;;;;;5035509;28;20029;-85
2021/04/26 10:59:17;;;;;;;2.53;1.30;;;16.10;34.10;;;;;;5052155;28;20037;-82
2021/04/26 11:01:51;;;;;;;1.55;1.40;;;16.20;34.30;;;;;;5052029;28;20033;-90
2021/04/26 11:04:18;;;;;;;2.42;1.90;;;16.10;34.30;;;;;;5052991;28;20492;-80
2021/04/26 11:07:19;;;;;;;1.60;1.50;;;16.10;34.50;;;;;;5052839;28;20568;-83
2021/04/26 11:09:46;;;;;;;1.98;1.50;;;16.10;34.60;;;;;;5053348;28;20127;-81
2021/04/26 11:12:32;;;;;;;4.03;1.92;;;16.10;34.60;;;;;;5051344;28;20048;-81
2021/04/26 11:15:19;;;;;;;1.52;1.40;;;16.10;34.70;;;;;;5035487;28;20132;-80
2021/04/26 11:17:46;;;;;;;2.88;1.90;;;16.10;34.60;;;;;;5053012;28;20033;-81
2021/04/26 11:20:13;;;;;;;1.70;1.60;;;16.10;34.60;;;;;;5053206;28;20053;-83
2021/04/26 11:22:41;;;;;;;3.30;1.65;;;16.00;34.70;;;;;;5052468;28;20040;-83
2021/04/26 11:25:09;;;;;;;1.73;1.60;;;16.00;34.60;;;;;;5035187;28;20037;-83
2021/04/26 11:27:37;;;;;;;4.60;2.30;;;16.00;34.70;;;;;;5051529;28;20196;-82
2021/04/26 11:30:04;;;;;;;2.17;1.98;;;16.00;34.70;;;;;;5052884;28;20037;-83
2021/04/26 11:32:31;;;;;;;3.53;1.90;;;16.00;34.90;;;;;;5053330;28;20118;-79
2021/04/26 11:34:59;;;;;;;4.32;1.70;;;16.00;35.00;;;;;;5051976;28;20094;-82
2021/04/26 11:37:34;;;;;;;2.88;1.70;;;15.90;35.00;;;;;;5051883;28;20127;-81
2021/04/26 11:40:22;;;;;;;2.90;1.80;;;15.90;34.90;;;;;;5051650;28;20146;-81
2021/04/26 11:42:49;;;;;;;2.45;1.70;;;15.90;35.00;;;;;;5034675;28;20089;-81
2021/04/26 11:45:20;;;;;;;2.67;1.60;;;15.90;35.10;;;;;;5052482;28;20043;-83
2021/04/26 11:47:50;;;;;;;3.20;1.67;;;16.00;35.10;;;;;;5035148;28;20037;-84
2021/04/26 11:50:16;;;;;;;2.00;1.70;;;16.00;35.10;;;;;;5052380;28;20041;-83
2021/04/26 11:52:42;;;;;;;2.10;1.65;;;15.90;35.00;;;;;;5055938;28;20055;-83
2021/04/26 11:55:17;;;;;;;2.03;1.77;;;15.90;35.00;;;;;;5038863;28;20056;-83
2021/04/26 11:57:55;;;;;;;3.20;2.03;;;15.90;34.90;;;;;;5035001;28;20043;-81
2021/04/26 12:00:30;;;;;;;2.10;1.90;;;15.90;34.80;;;;;;5051559;28;20044;-81
2021/04/26 12:03:09;;;;;;;3.45;2.00;;;15.90;34.80;;;;;;5051625;28;20418;-83
2021/04/26 12:05:36;;;;;;;2.20;2.00;;;15.90;34.70;;;;;;5051558;28;20135;-87
2021/04/26 12:08:07;;;;;;;2.58;2.03;;;15.90;34.70;;;;;;5034478;28;20037;-84
2021/04/26 12:10:41;;;;;;;3.67;1.80;;;15.80;34.70;;;;;;5050825;28;20687;-82
2021/04/26 12:13:08;;;;;;;3.38;2.00;;;15.70;34.80;;;;;;5051074;28;20043;-82
2021/04/26 12:15:37;;;;;;;4.15;2.00;;;15.80;34.90;;;;;;5052052;28;20090;-79
2021/04/26 12:18:05;;;;;;;3.30;2.42;;;15.70;34.90;;;;;;5052070;28;20516;-81
2021/04/26 12:20:40;;;;;;;2.92;1.77;;;15.70;34.90;;;;;;5051122;28;20043;-80
2021/04/26 12:23:23;;;;;;;3.35;1.60;;;15.70;35.00;;;;;;5051089;28;20090;-78
2021/04/26 12:25:49;;;;;;;2.38;1.48;;;15.80;35.00;;;;;;5052094;28;20552;-77
2021/04/26 12:28:16;;;;;;;2.03;1.77;;;15.70;35.00;;;;;;5051141;28;20045;-81
2021/04/26 12:30:44;;;;;;;3.65;1.60;;;15.70;35.10;;;;;;5050755;28;20079;-80
2021/04/26 12:33:39;;;;;;;3.55;1.92;;;15.80;35.20;;;;;;5052406;28;20044;-81
2021/04/26 12:36:07;;;;;;;3.05;1.70;;;15.70;35.00;;;;;;5014559;28;20037;-81
2021/04/26 12:38:37;;;;;;;4.50;2.00;;;15.70;34.80;;;;;;5034204;28;20033;-80
2021/04/26 12:41:12;;;;;;;2.47;2.00;;;15.70;35.20;;;;;;5051205;28;20094;-80
2021/04/26 12:43:41;;;;;;;1.77;1.63;;;15.70;34.50;;;;;;5050917;28;20091;-79
2021/04/26 12:46:13;;;;;;;2.20;1.88;;;15.60;34.40;;;;;;5054174;28;20287;-80
2021/04/26 12:48:41;;;;;;;3.42;1.65;;;15.60;34.40;;;;;;5054480;28;20516;-81
2021/04/26 12:51:07;;;;;;;3.55;1.63;;;15.60;34.60;;;;;;5037788;28;20033;-79
2021/04/26 12:53:39;;;;;;;1.73;1.63;;;15.60;34.50;;;;;;5055474;28;20406;-81
2021/04/26 12:56:11;;;;;;;3.80;2.00;;;15.60;34.60;;;;;;5054290;28;20029;-79
2021/04/26 12:58:44;;;;;;;3.65;2.13;;;15.60;34.60;;;;;;5054142;28;20029;-80
2021/04/26 13:01:14;;;;;;;4.55;1.83;;;15.60;34.70;;;;;;5054351;28;20045;-80
2021/04/26 13:03:47;;;;;;;2.28;2.08;;;15.60;34.70;;;;;;5055705;28;20525;-81
2021/04/26 13:06:19;;;;;;;2.28;1.80;;;15.50;34.80;;;;;;5055495;28;20134;-80
2021/04/26 13:08:49;;;;;;;3.92;2.00;;;15.50;34.90;;;;;;5054070;28;20041;-80
2021/04/26 13:11:52;;;;;;;1.67;1.58;;;15.40;35.00;;;;;;5036729;28;20062;-80